createdAt,value
2022-08-14T00:00:02.483Z,21.60
2022-08-14T00:02:31.414Z,21.60
2022-08-14T00:04:58.795Z,21.50
2022-08-14T00:07:25.786Z,21.50
2022-08-14T00:09:55.798Z,21.50
2022-08-14T00:12:33.071Z,21.50
2022-08-14T00:15:02.844Z,21.50
2022-08-14T00:17:30.060Z,21.50
2022-08-14T00:19:58.587Z,21.40
2022-08-14T00:22:56.948Z,21.40
2022-08-14T00:25:13.920Z,21.40
2022-08-14T00:27:42.397Z,21.30
2022-08-14T00:30:11.047Z,21.30
2022-08-14T00:32:50.572Z,21.30
2022-08-14T00:35:25.909Z,21.30
2022-08-14T00:38:10.577Z,21.30
2022-08-14T00:40:37.530Z,21.30
2022-08-14T00:43:04.693Z,21.20
2022-08-14T00:45:31.694Z,21.20
2022-08-14T00:48:00.004Z,21.10
2022-08-14T00:50:30.501Z,21.10
2022-08-14T00:52:57.831Z,21.10
2022-08-14T00:55:24.864Z,21.10
2022-08-14T00:58:11.660Z,21.00
2022-08-14T01:00:47.347Z,21.00
2022-08-14T01:03:19.353Z,21.00
2022-08-14T01:05:51.652Z,21.00
2022-08-14T01:08:51.649Z,21.00
2022-08-14T01:11:13.609Z,20.90
2022-08-14T01:13:46.662Z,20.90
2022-08-14T01:16:28.076Z,20.90
2022-08-14T01:19:16.446Z,20.80
2022-08-14T01:21:47.194Z,20.80
2022-08-14T01:24:30.294Z,20.80
2022-08-14T01:27:01.632Z,20.70
2022-08-14T01:29:59.277Z,20.70
2022-08-14T05:45:35.396Z,18.40
2022-08-14T05:48:05.075Z,18.40
2022-08-14T05:50:38.285Z,18.40
2022-08-14T05:53:05.172Z,18.50
2022-08-14T05:55:32.325Z,18.50
2022-08-14T05:58:07.279Z,18.60
2022-08-14T06:00:39.554Z,18.70
2022-08-14T06:03:08.839Z,18.70
2022-08-14T06:05:38.533Z,18.80
2022-08-14T06:08:08.407Z,18.90
2022-08-14T06:10:49.255Z,19.00
2022-08-14T06:13:16.936Z,19.10
2022-08-14T06:15:44.730Z,19.10
2022-08-14T06:18:12.503Z,19.20
2022-08-14T06:20:44.447Z,19.20
2022-08-14T06:23:13.163Z,19.30
2022-08-14T06:25:41.559Z,19.40
2022-08-14T06:28:27.336Z,19.50
2022-08-14T06:30:55.154Z,19.50
2022-08-14T06:33:22.488Z,19.60
2022-08-14T06:35:49.910Z,19.70
2022-08-14T06:38:21.561Z,19.80
2022-08-14T06:40:50.773Z,19.90
2022-08-14T06:43:20.779Z,19.90
2022-08-14T06:45:53.984Z,20.00
2022-08-14T06:48:23.768Z,20.10
2022-08-14T06:50:51.456Z,20.20
2022-08-14T06:53:19.873Z,20.20
2022-08-14T06:55:53.222Z,20.30
2022-08-14T06:58:28.570Z,20.40
2022-08-14T07:01:14.767Z,20.50
2022-08-14T07:04:01.160Z,20.50
2022-08-14T07:06:46.721Z,20.60
2022-08-14T07:09:19.494Z,20.70
2022-08-14T07:11:49.610Z,20.80
2022-08-14T07:14:16.368Z,20.90
2022-08-14T07:16:43.159Z,21.00
2022-08-14T07:19:09.962Z,21.10
2022-08-14T07:21:38.112Z,21.10
2022-08-14T07:24:04.964Z,21.20
2022-08-14T07:26:36.414Z,21.30
2022-08-14T07:29:05.829Z,21.40
2022-08-14T07:31:33.623Z,21.50
2022-08-14T07:34:00.417Z,21.60
2022-08-14T07:36:31.267Z,21.60
2022-08-14T07:39:03.023Z,21.70
2022-08-14T07:41:38.779Z,21.80
2022-08-14T07:44:28.650Z,21.90
2022-08-14T07:46:52.472Z,22.00
2022-08-14T07:49:19.948Z,22.00
2022-08-14T07:51:49.713Z,22.20
2022-08-14T07:54:23.432Z,22.20
2022-08-14T07:56:59.975Z,22.30
2022-08-14T07:59:41.393Z,22.40
2022-08-14T08:02:18.911Z,22.50
2022-08-14T08:04:53.090Z,22.60
2022-08-14T08:07:22.790Z,22.60
2022-08-14T08:09:51.055Z,22.70
2022-08-14T08:12:22.262Z,22.80
2022-08-14T08:14:56.541Z,22.90
2022-08-14T08:17:34.991Z,23.00
2022-08-14T08:20:09.012Z,23.10
2022-08-14T08:22:38.484Z,23.20
2022-08-14T08:25:13.470Z,23.30
2022-08-14T08:27:44.560Z,23.40
2022-08-14T08:30:12.533Z,23.50
2022-08-14T08:32:42.993Z,23.60
2022-08-14T08:35:24.314Z,23.70
2022-08-14T08:37:53.678Z,23.80
2022-08-14T08:40:51.477Z,23.90
2022-08-14T08:43:22.962Z,24.10
2022-08-14T08:45:55.733Z,24.20
2022-08-14T08:48:31.923Z,24.20
2022-08-14T08:51:05.245Z,24.30
2022-08-14T08:53:33.192Z,24.40
2022-08-14T08:56:00.837Z,24.40
2022-08-14T08:58:28.396Z,24.50
2022-08-14T09:00:57.355Z,24.60
2022-08-14T09:03:27.858Z,24.70
2022-08-14T09:05:57.747Z,24.80
2022-08-14T09:08:31.328Z,24.80
2022-08-14T09:11:19.817Z,25.00
2022-08-14T09:13:50.569Z,25.00
2022-08-14T09:16:23.428Z,25.10
2022-08-14T09:18:50.531Z,25.20
2022-08-14T09:21:20.684Z,25.40
2022-08-14T09:24:29.537Z,25.50
2022-08-14T09:26:34.561Z,25.60
2022-08-14T09:29:01.965Z,25.70
2022-08-14T09:31:42.937Z,25.80
2022-08-14T09:34:35.135Z,25.90
2022-08-14T09:37:41.024Z,26.00
2022-08-14T09:40:29.470Z,26.20
2022-08-14T09:43:19.960Z,26.40
2022-08-14T09:45:52.848Z,26.60
2022-08-14T09:48:29.865Z,26.70
2022-08-14T09:50:58.261Z,26.90
2022-08-14T09:54:12.609Z,27.00
2022-08-14T09:56:31.781Z,27.10
2022-08-14T09:59:13.507Z,27.20
2022-08-14T10:01:43.380Z,27.40
2022-08-14T10:04:34.355Z,27.50
2022-08-14T10:07:03.526Z,27.60
2022-08-14T10:09:34.694Z,27.70
2022-08-14T10:12:04.775Z,27.70
2022-08-14T10:14:35.729Z,27.80
2022-08-14T10:17:06.016Z,27.90
2022-08-14T10:19:35.632Z,28.00
2022-08-14T10:23:13.415Z,28.10
2022-08-14T10:24:55.214Z,28.20
2022-08-14T10:27:24.316Z,28.30
2022-08-14T10:29:58.086Z,28.40
2022-08-14T10:32:28.397Z,28.50
2022-08-14T10:35:05.890Z,28.60
2022-08-14T10:37:44.186Z,28.70
2022-08-14T10:40:38.777Z,28.90
2022-08-14T10:42:59.551Z,28.90
2022-08-14T10:45:33.892Z,29.00
2022-08-14T10:48:09.344Z,29.20
2022-08-14T10:50:51.533Z,29.30
2022-08-14T10:53:29.514Z,29.40
2022-08-14T10:56:00.855Z,29.50
2022-08-14T10:58:34.179Z,29.60
2022-08-14T11:01:05.526Z,29.70
2022-08-14T11:03:56.979Z,29.80
2022-08-14T11:06:24.739Z,29.90
2022-08-14T11:08:54.334Z,30.00
2022-08-14T11:11:22.811Z,30.10
2022-08-14T11:13:51.024Z,30.20
2022-08-14T11:16:18.349Z,30.20
2022-08-14T11:18:50.884Z,30.30
2022-08-14T11:21:23.023Z,30.30
2022-08-14T11:23:53.552Z,30.40
2022-08-14T11:26:20.627Z,30.50
2022-08-14T11:28:49.981Z,30.60
2022-08-14T11:31:23.217Z,30.80
2022-08-14T11:33:55.318Z,30.80
2022-08-14T11:36:22.654Z,30.90
2022-08-14T11:38:49.640Z,31.00
2022-08-14T11:41:18.289Z,31.10
2022-08-14T11:43:57.880Z,31.20
2022-08-14T11:46:30.425Z,31.40
2022-08-14T11:49:05.530Z,31.30
2022-08-14T11:51:36.220Z,31.20
2022-08-14T11:54:20.194Z,31.30
2022-08-14T11:56:50.640Z,31.50
2022-08-14T11:59:18.699Z,31.70
2022-08-14T12:01:48.869Z,31.90
2022-08-14T12:04:32.836Z,32.20
2022-08-14T12:07:01.305Z,32.40
2022-08-14T12:09:38.643Z,32.70
2022-08-14T12:12:35.933Z,33.10
2022-08-14T12:15:08.797Z,33.50
2022-08-14T12:17:49.345Z,33.90
2022-08-14T12:20:30.301Z,34.20
2022-08-14T12:23:00.903Z,34.50
2022-08-14T12:25:27.744Z,35.00
2022-08-14T12:27:59.514Z,35.20
2022-08-14T12:30:37.354Z,35.60
2022-08-14T12:33:24.078Z,35.70
2022-08-14T12:35:57.526Z,35.80
2022-08-14T12:38:45.668Z,35.90
2022-08-14T12:41:20.309Z,35.90
2022-08-14T12:43:51.621Z,36.00
2022-08-14T12:46:28.920Z,36.00
2022-08-14T12:49:17.136Z,36.20
2022-08-14T12:51:55.276Z,36.20
2022-08-14T12:54:28.121Z,36.40
2022-08-14T12:57:19.426Z,36.50
2022-08-14T12:59:46.816Z,36.60
2022-08-14T13:02:25.962Z,36.80
2022-08-14T13:04:58.198Z,37.00
2022-08-14T13:07:32.554Z,37.00
2022-08-14T13:09:59.892Z,37.20
2022-08-14T13:12:33.517Z,37.20
2022-08-14T13:15:13.868Z,37.00
2022-08-14T13:17:48.021Z,37.00
2022-08-14T13:20:24.423Z,37.40
2022-08-14T13:22:52.319Z,37.90
2022-08-14T13:25:21.509Z,37.80
2022-08-14T13:27:50.257Z,38.00
2022-08-14T13:30:24.185Z,38.20
2022-08-14T13:32:54.862Z,38.20
2022-08-14T13:35:25.071Z,38.30
2022-08-14T13:37:53.415Z,38.40
2022-08-14T13:40:26.304Z,38.60
2022-08-14T13:42:55.291Z,39.00
2022-08-14T13:45:34.236Z,39.00
2022-08-14T13:48:18.295Z,39.10
2022-08-14T13:51:01.574Z,39.50
2022-08-14T13:53:33.269Z,39.80
2022-08-14T13:56:00.410Z,39.80
2022-08-14T13:58:30.282Z,40.00
2022-08-14T14:01:01.000Z,40.30
2022-08-14T14:03:30.492Z,40.70
2022-08-14T14:05:58.792Z,41.00
2022-08-14T14:08:46.045Z,41.40
2022-08-14T14:11:14.169Z,41.60
2022-08-14T14:13:45.308Z,41.70
2022-08-14T14:16:15.055Z,41.30
2022-08-14T14:18:43.872Z,41.40
2022-08-14T14:21:13.019Z,41.20
2022-08-14T14:23:41.548Z,41.40
2022-08-14T14:26:14.078Z,41.20
2022-08-14T14:28:41.620Z,40.70
2022-08-14T14:31:09.332Z,40.20
2022-08-14T14:33:51.868Z,40.10
2022-08-14T14:36:26.509Z,40.50
2022-08-14T14:38:57.255Z,40.50
2022-08-14T14:41:25.689Z,40.20
2022-08-14T14:43:54.210Z,39.90
2022-08-14T14:46:22.189Z,39.50
2022-08-14T14:49:04.925Z,39.40
2022-08-14T14:51:31.681Z,39.20
2022-08-14T14:53:58.526Z,39.30
2022-08-14T14:56:50.193Z,39.30
2022-08-14T14:59:12.877Z,39.40
2022-08-14T15:01:39.893Z,38.70
2022-08-14T15:04:20.099Z,38.20
2022-08-14T15:06:48.281Z,37.70
2022-08-14T15:09:18.153Z,37.20
2022-08-14T15:11:45.945Z,36.90
2022-08-14T15:14:55.073Z,36.90
2022-08-14T15:17:01.844Z,37.00
2022-08-14T15:19:28.917Z,36.90
2022-08-14T15:21:55.733Z,36.80
2022-08-14T15:24:26.547Z,36.80
2022-08-14T15:26:54.372Z,37.50
2022-08-14T15:29:21.127Z,37.90
2022-08-14T15:31:47.995Z,38.30
2022-08-14T15:34:45.382Z,38.60
2022-08-14T15:37:05.190Z,39.20
2022-08-14T15:39:35.738Z,39.30
2022-08-14T15:42:14.234Z,39.30
2022-08-14T15:44:44.899Z,39.10
2022-08-14T15:47:28.894Z,38.70
2022-08-14T15:49:59.089Z,38.20
2022-08-14T15:52:32.742Z,37.60
2022-08-14T15:55:04.872Z,37.00
2022-08-14T15:57:32.643Z,36.50
2022-08-14T16:00:40.852Z,36.20
2022-08-14T16:03:08.730Z,35.60
2022-08-14T16:05:38.603Z,35.30
2022-08-14T16:08:28.831Z,34.90
2022-08-14T16:10:55.575Z,34.70
2022-08-14T16:13:39.895Z,34.50
2022-08-14T16:16:49.033Z,34.30
2022-08-14T16:19:11.207Z,34.10
2022-08-14T16:22:01.446Z,33.80
2022-08-14T16:24:31.078Z,33.50
2022-08-14T16:27:00.722Z,33.30
2022-08-14T16:29:30.190Z,33.10
2022-08-14T16:32:01.752Z,33.10
2022-08-14T16:34:50.088Z,33.10
2022-08-14T16:37:21.429Z,33.10
2022-08-14T16:39:49.481Z,33.10
2022-08-14T16:42:38.839Z,33.20
2022-08-14T16:45:11.013Z,33.30
2022-08-14T16:47:38.053Z,33.40
2022-08-14T16:50:09.381Z,33.30
2022-08-14T16:52:44.418Z,33.10
2022-08-14T16:55:21.511Z,33.10
2022-08-14T16:57:48.195Z,33.10
2022-08-14T17:00:46.246Z,33.10
2022-08-14T17:03:16.398Z,33.00
2022-08-14T17:05:46.693Z,32.80
2022-08-14T17:08:31.672Z,32.80
2022-08-14T17:11:09.725Z,32.50
2022-08-14T17:13:57.785Z,32.40
2022-08-14T17:16:25.719Z,32.30
2022-08-14T17:19:00.869Z,32.20
2022-08-14T17:21:38.241Z,32.10
2022-08-14T17:24:57.804Z,32.00
2022-08-14T17:27:04.429Z,31.90
2022-08-14T17:29:34.133Z,31.80
2022-08-14T17:32:28.058Z,31.80
2022-08-14T17:34:57.951Z,31.80
2022-08-14T17:37:37.203Z,31.70
2022-08-14T17:40:15.026Z,31.70
2022-08-14T17:42:51.457Z,31.70
2022-08-14T17:45:27.086Z,31.70
2022-08-14T17:47:56.954Z,31.60
2022-08-14T17:50:58.658Z,31.60
2022-08-14T17:53:27.406Z,31.50
2022-08-14T17:56:01.616Z,31.50
2022-08-14T17:58:38.442Z,31.30
2022-08-14T18:01:08.505Z,31.10
2022-08-14T18:03:50.338Z,31.00
2022-08-14T18:06:39.754Z,31.00
2022-08-14T18:09:24.550Z,30.90
2022-08-14T18:12:01.404Z,30.80
2022-08-14T18:14:33.251Z,30.70
2022-08-14T18:17:16.494Z,30.60
2022-08-14T18:19:44.604Z,30.40
2022-08-14T18:22:31.135Z,30.30
2022-08-14T18:24:58.753Z,30.20
2022-08-14T18:27:36.349Z,30.10
2022-08-14T18:30:31.788Z,30.00
2022-08-14T18:32:55.455Z,29.90
2022-08-14T18:35:45.627Z,29.70
2022-08-14T18:38:45.624Z,29.60
2022-08-14T18:41:36.991Z,29.40
2022-08-14T18:44:10.888Z,29.10
2022-08-14T18:47:15.901Z,29.00
2022-08-14T18:50:00.399Z,28.90
2022-08-14T18:52:32.050Z,28.70
2022-08-14T18:55:18.980Z,28.60
2022-08-14T18:58:07.735Z,28.50
2022-08-14T19:00:51.978Z,28.40
2022-08-14T19:03:18.683Z,28.30
2022-08-14T19:05:49.435Z,28.20
2022-08-14T19:08:22.146Z,28.10
2022-08-14T19:10:53.188Z,28.00
2022-08-14T19:13:44.610Z,27.80
2022-08-14T19:16:23.070Z,27.70
2022-08-14T19:19:00.462Z,27.50
2022-08-14T19:21:30.588Z,27.40
2022-08-14T19:24:27.114Z,27.30
2022-08-14T19:27:15.092Z,27.20
2022-08-14T19:29:43.571Z,27.10
2022-08-14T19:32:40.802Z,27.00
2022-08-14T19:35:16.646Z,26.80
2022-08-14T19:37:47.677Z,26.80
2022-08-14T19:40:34.472Z,26.70
2022-08-14T19:43:03.060Z,26.60
2022-08-14T19:45:34.095Z,26.60
2022-08-14T19:48:01.738Z,26.50
2022-08-14T19:50:40.636Z,26.30
2022-08-14T19:53:11.234Z,26.20
2022-08-14T19:55:45.707Z,26.10
2022-08-14T19:58:12.903Z,26.10
2022-08-14T20:00:52.123Z,26.00
2022-08-14T20:03:23.894Z,25.80
2022-08-14T20:06:05.281Z,25.80
2022-08-14T20:10:58.427Z,25.70
2022-08-14T20:12:00.141Z,25.50
2022-08-14T20:14:20.518Z,25.40
2022-08-14T20:16:55.737Z,25.20
2022-08-14T20:19:28.702Z,25.10
2022-08-14T20:22:00.606Z,25.00
2022-08-14T20:24:45.148Z,24.90
2022-08-14T20:27:39.468Z,24.80
2022-08-14T20:30:30.043Z,24.80
2022-08-14T20:33:10.895Z,24.80
2022-08-14T20:35:42.730Z,24.70
2022-08-14T20:38:30.670Z,24.60
2022-08-14T20:41:10.735Z,24.60
2022-08-14T20:43:59.493Z,24.60
2022-08-14T20:46:38.719Z,24.50
2022-08-14T20:49:10.937Z,24.40
2022-08-14T20:51:43.549Z,24.40
2022-08-14T20:54:21.097Z,24.30
2022-08-14T20:57:13.845Z,24.30
2022-08-14T20:59:50.172Z,24.20
2022-08-14T21:02:34.599Z,24.20
2022-08-14T21:05:17.118Z,24.20
2022-08-14T21:07:50.723Z,24.30
2022-08-14T21:10:33.697Z,24.30
2022-08-14T21:13:26.100Z,24.30
2022-08-14T21:15:57.876Z,24.30
2022-08-14T21:18:30.415Z,24.30
2022-08-14T21:20:59.902Z,24.30
2022-08-14T21:23:32.707Z,24.30
2022-08-14T21:26:00.072Z,24.30
2022-08-14T21:28:30.066Z,24.20
2022-08-14T21:30:57.884Z,24.10
2022-08-14T21:33:24.750Z,24.20
2022-08-14T21:35:54.964Z,24.10
2022-08-14T21:38:33.990Z,24.10
2022-08-14T21:41:42.601Z,24.10
2022-08-14T21:44:18.066Z,24.10
2022-08-14T21:46:56.532Z,24.00
2022-08-14T21:49:38.427Z,24.00
2022-08-14T21:52:49.281Z,23.80
2022-08-14T21:55:09.559Z,23.80
2022-08-14T21:58:51.785Z,23.80
2022-08-14T22:00:30.169Z,23.70
2022-08-14T22:03:01.829Z,23.70
2022-08-14T22:05:30.012Z,23.70
2022-08-14T22:07:57.738Z,23.70
2022-08-14T22:10:24.531Z,23.70
2022-08-14T22:13:00.617Z,23.70
2022-08-14T22:15:28.556Z,23.70
2022-08-14T22:17:55.434Z,23.60
2022-08-14T22:20:22.862Z,23.60
2022-08-14T22:22:56.029Z,23.60
2022-08-14T22:25:23.497Z,23.50
2022-08-14T22:28:01.725Z,23.40
2022-08-14T22:30:28.473Z,23.40
2022-08-14T22:32:58.506Z,23.30
2022-08-14T22:35:27.431Z,23.10
2022-08-14T22:38:35.036Z,23.00
2022-08-14T22:40:59.283Z,22.90
2022-08-14T22:43:31.182Z,22.80
2022-08-14T22:46:02.392Z,22.70
2022-08-14T22:48:29.704Z,22.60
2022-08-14T22:50:56.471Z,22.50
2022-08-14T22:53:24.255Z,22.40
2022-08-14T22:55:56.760Z,22.30
2022-08-14T22:58:31.760Z,22.20
2022-08-14T23:01:02.424Z,22.10
2022-08-14T23:03:31.207Z,22.10
2022-08-14T23:06:02.166Z,22.00
2022-08-14T23:08:59.615Z,22.00
2022-08-14T23:11:15.841Z,22.00
2022-08-14T23:13:43.421Z,21.90
2022-08-14T23:16:20.224Z,21.80
2022-08-14T23:18:48.353Z,21.70
2022-08-14T23:21:22.095Z,21.70
2022-08-14T23:23:55.030Z,21.50
2022-08-14T23:26:47.671Z,21.40
2022-08-14T23:29:09.547Z,21.30
2022-08-14T23:31:38.471Z,21.20
2022-08-14T23:34:09.578Z,21.20
2022-08-14T23:36:53.047Z,21.20
2022-08-14T23:39:20.854Z,21.10
2022-08-14T23:41:52.646Z,21.10
2022-08-14T23:44:22.078Z,21.10
2022-08-14T23:46:52.557Z,21.10
2022-08-14T23:49:25.086Z,21.10
2022-08-14T23:52:51.094Z,21.10
2022-08-14T23:54:48.517Z,21.10
2022-08-14T23:57:19.225Z,21.10
2022-08-14T23:59:54.198Z,21.00
